Terminal Aerodrome Forecast
Issued by NWS

Home | Current Version | Previous Version | Text Only | Print | Product List | Glossary Off
Versions: 1 2 3 4 5 6 7 8 9 10 11 12 13 14 15 16 17 18 19 20 21 22 23 24 25 26 27 28

000
FTUS45 KGGW 102300
TAFOLF
TAF
KOLF 102320Z 1100/1124 31013KT P6SM SKC
     FM110300 VRB06KT P6SM SKC
     FM110600 VRB06KT P6SM VCTS SCT100CB
     FM111200 VRB06KT P6SM SCT090=

USA.gov is the U.S. government's official web portal to all federal, state and local government web resources and services.